Time;durP1;ratioP1;P1;durP2;ratioP2;P2;SDS_P1;SDS_P2;PMS_P1;PMS_P2;Temp;Humidity;BMP_temperature;BMP_pressure;BME280_temperature;BME280_humidity;BME280_pressure;Samples;Min_cycle;Max_cycle;Signal;HPM_P1;HPM_P2
2022/03/05 00:01:56;;;;;;;;;;;-0.40;93.50;;;;;;5062187;28;19915;-69
2022/03/05 00:04:21;;;;;;;;;;;-0.40;93.30;;;;;;5062434;28;19976;-69
2022/03/05 00:06:49;;;;;;;;;;;-0.40;93.30;;;;;;5062467;28;19932;-69
2022/03/05 00:09:17;;;;;;;;;;;-0.40;93.30;;;;;;5045058;28;19944;-67
2022/03/05 00:11:43;;;;;;;;;;;-0.40;93.40;;;;;;5062070;28;19950;-68
2022/03/05 00:14:09;;;;;;;;;;;-0.50;93.40;;;;;;5062168;28;20116;-68
2022/03/05 00:16:35;;;;;;;;;;;-0.40;93.50;;;;;;5062527;28;19916;-67
2022/03/05 00:19:01;;;;;;;;;;;-0.50;93.40;;;;;;5062178;28;19909;-68
2022/03/05 00:21:26;;;;;;;;;;;-0.50;93.40;;;;;;5062070;28;19915;-68
2022/03/05 00:23:52;;;;;;;;;;;-0.50;93.40;;;;;;5062202;28;20207;-68
2022/03/05 00:26:18;;;;;;;;;;;-0.50;93.40;;;;;;5062283;28;19983;-67
2022/03/05 00:28:43;;;;;;;;;;;-0.40;93.40;;;;;;5061626;28;19947;-68
2022/03/05 00:31:09;;;;;;;;;;;-0.50;93.30;;;;;;5062092;28;20265;-68
2022/03/05 00:33:35;;;;;;;;;;;-0.50;93.30;;;;;;5062129;28;19939;-68
2022/03/05 00:36:01;;;;;;;;;;;-0.40;93.40;;;;;;5062225;28;19977;-68
2022/03/05 00:38:27;;;;;;;;;;;-0.50;93.40;;;;;;5062049;28;19932;-68
2022/03/05 00:40:52;;;;;;;;;;;-0.50;93.50;;;;;;5061906;28;20120;-68
2022/03/05 00:43:18;;;;;;;;;;;-0.50;93.50;;;;;;5061884;28;19916;-69
2022/03/05 00:45:44;;;;;;;;;;;-0.50;93.50;;;;;;5062202;28;19909;-69
2022/03/05 00:48:10;;;;;;;;;;;-0.60;93.50;;;;;;5061992;28;19908;-69
2022/03/05 00:50:35;;;;;;;;;;;-0.60;93.50;;;;;;5061619;28;19976;-69
2022/03/05 00:53:01;;;;;;;;;;;-0.60;93.50;;;;;;5062064;28;19916;-68
2022/03/05 00:55:27;;;;;;;;;;;-0.60;93.60;;;;;;5062186;28;20200;-68
2022/03/05 00:57:52;;;;;;;;;;;-0.60;93.50;;;;;;5060792;28;19917;-68
2022/03/05 01:00:18;;;;;;;;;;;-0.60;93.50;;;;;;5061869;28;20262;-68
2022/03/05 01:02:44;;;;;;;;;;;-0.50;93.50;;;;;;5061711;28;19916;-68
2022/03/05 01:05:10;;;;;;;;;;;-0.50;93.50;;;;;;5061796;28;20196;-68
2022/03/05 01:07:35;;;;;;;;;;;-0.50;93.40;;;;;;5061724;28;19916;-68
2022/03/05 01:10:01;;;;;;;;;;;-0.50;93.40;;;;;;5061801;28;19916;-68
2022/03/05 01:12:27;;;;;;;;;;;-0.50;93.40;;;;;;5043888;28;19995;-68
2022/03/05 01:14:53;;;;;;;;;;;-0.50;93.40;;;;;;5043801;28;19937;-68
2022/03/05 01:17:18;;;;;;;;;;;-0.60;93.40;;;;;;5061639;28;19916;-68
2022/03/05 01:19:45;;;;;;;;;;;-0.50;93.40;;;;;;5061758;28;19908;-68
2022/03/05 01:22:10;;;;;;;;;;;-0.50;93.40;;;;;;5061892;28;19930;-68
2022/03/05 01:24:36;;;;;;;;;;;-0.60;93.40;;;;;;5061746;28;20199;-68
2022/03/05 01:27:02;;;;;;;;;;;-0.60;93.40;;;;;;5061668;28;20031;-70
2022/03/05 01:29:28;;;;;;;;;;;-0.60;93.40;;;;;;5061619;28;19963;-70
2022/03/05 01:31:53;;;;;;;;;;;-0.50;93.40;;;;;;5047145;28;19920;-70
2022/03/05 01:34:20;;;;;;;;;;;-0.50;93.40;;;;;;5065311;28;20013;-70
2022/03/05 01:36:45;;;;;;;;;;;-0.60;93.60;;;;;;5065199;28;19916;-70
2022/03/05 01:39:12;;;;;;;;;;;-0.60;93.40;;;;;;5064939;28;19913;-70
2022/03/05 01:41:37;;;;;;;;;;;-0.60;93.50;;;;;;5064947;28;19951;-70
2022/03/05 01:44:04;;;;;;;;;;;-0.70;93.50;;;;;;5064839;28;19909;-70
2022/03/05 01:46:30;;;;;;;;;;;-0.70;93.60;;;;;;5064937;28;19993;-70
2022/03/05 01:48:55;;;;;;;;;;;-0.70;93.70;;;;;;5064943;28;20116;-70
2022/03/05 01:51:21;;;;;;;;;;;-0.80;93.60;;;;;;5064561;28;20251;-70
2022/03/05 01:53:47;;;;;;;;;;;-0.70;93.50;;;;;;5064869;28;19909;-70
2022/03/05 01:56:13;;;;;;;;;;;-0.70;93.40;;;;;;5064896;28;19925;-70
2022/03/05 01:58:38;;;;;;;;;;;-0.80;93.50;;;;;;5046081;28;19932;-70
2022/03/05 02:01:04;;;;;;;;;;;-0.80;93.40;;;;;;5064426;28;19915;-69
2022/03/05 02:03:30;;;;;;;;;;;-0.80;93.40;;;;;;5064629;28;19909;-70
2022/03/05 02:05:56;;;;;;;;;;;-0.80;93.50;;;;;;5064564;28;20317;-70
2022/03/05 02:08:21;;;;;;;;;;;-0.90;93.40;;;;;;5064342;28;19972;-70
2022/03/05 02:10:47;;;;;;;;;;;-0.90;93.40;;;;;;5046432;28;20228;-70
2022/03/05 02:13:12;;;;;;;;;;;-0.90;93.40;;;;;;5064172;28;19917;-70
2022/03/05 02:15:38;;;;;;;;;;;-0.90;93.50;;;;;;5064411;28;19909;-70
2022/03/05 02:18:04;;;;;;;;;;;-0.90;93.50;;;;;;5064306;28;20164;-68
2022/03/05 02:20:30;;;;;;;;;;;-1.00;93.60;;;;;;5064260;28;19909;-71
2022/03/05 02:22:55;;;;;;;;;;;-1.00;93.70;;;;;;5064088;28;19909;-71
2022/03/05 02:25:21;;;;;;;;;;;-1.20;94.00;;;;;;5064223;28;19963;-71
2022/03/05 02:27:47;;;;;;;;;;;-1.30;94.20;;;;;;5064084;28;19916;-71
2022/03/05 02:30:13;;;;;;;;;;;-1.20;94.20;;;;;;5063926;28;19920;-71
2022/03/05 02:32:39;;;;;;;;;;;-1.20;94.10;;;;;;5063881;28;19958;-71
2022/03/05 02:35:05;;;;;;;;;;;-1.10;94.10;;;;;;5064050;28;19980;-71
2022/03/05 02:37:30;;;;;;;;;;;-1.10;94.00;;;;;;5073382;22;20161;-65
2022/03/05 02:39:56;;;;;;;;;;;-1.10;93.90;;;;;;5040803;28;19940;-66
2022/03/05 02:42:22;;;;;;;;;;;-1.10;94.00;;;;;;5042590;28;19915;-68
2022/03/05 02:44:47;;;;;;;;;;;-1.10;93.90;;;;;;5043897;28;19951;-65
2022/03/05 02:47:13;;;;;;;;;;;-1.10;94.00;;;;;;5043754;28;19971;-68
2022/03/05 02:49:39;;;;;;;;;;;-1.20;94.10;;;;;;5032442;28;19988;-66
2022/03/05 02:52:05;;;;;;;;;;;-1.20;94.10;;;;;;5025912;28;19913;-67
2022/03/05 02:54:31;;;;;;;;;;;-1.20;94.10;;;;;;5043585;28;19909;-68
2022/03/05 02:56:56;;;;;;;;;;;-1.20;94.40;;;;;;5043661;28;20093;-66
2022/03/05 02:59:22;;;;;;;;;;;-1.20;94.30;;;;;;5050863;28;19917;-65
2022/03/05 03:01:48;;;;;;;;;;;-1.20;94.20;;;;;;5043252;28;19917;-65
2022/03/05 03:04:13;;;;;;;;;;;-1.20;94.10;;;;;;5043639;28;20196;-66
2022/03/05 03:06:39;;;;;;;;;;;-1.40;94.30;;;;;;5043458;28;19948;-67
2022/03/05 03:09:05;;;;;;;;;;;-1.40;94.40;;;;;;5043150;28;20238;-66
2022/03/05 03:11:30;;;;;;;;;;;-1.40;94.30;;;;;;5043113;28;19940;-67
2022/03/05 03:13:56;;;;;;;;;;;-1.40;94.50;;;;;;5043435;28;19916;-67
2022/03/05 03:16:22;;;;;;;;;;;-1.40;94.50;;;;;;5043239;28;19941;-67
2022/03/05 03:18:47;;;;;;;;;;;-1.40;94.60;;;;;;5043203;28;19939;-66
2022/03/05 03:21:13;;;;;;;;;;;-1.40;94.50;;;;;;5042807;28;19917;-67
2022/03/05 03:23:39;;;;;;;;;;;-1.40;94.50;;;;;;5043010;28;19909;-67
2022/03/05 03:26:04;;;;;;;;;;;-1.40;94.60;;;;;;5043198;28;20197;-66
2022/03/05 03:28:30;;;;;;;;;;;-1.40;94.60;;;;;;5045410;28;19909;-66
2022/03/05 03:30:56;;;;;;;;;;;-1.40;94.60;;;;;;5062708;28;19936;-67
2022/03/05 03:33:21;;;;;;;;;;;-1.30;94.70;;;;;;5062942;28;20103;-67
2022/03/05 03:35:47;;;;;;;;;;;-1.20;94.50;;;;;;5063176;28;19909;-67
2022/03/05 03:38:13;;;;;;;;;;;-1.20;94.40;;;;;;5062479;28;19991;-66
2022/03/05 03:40:38;;;;;;;;;;;-1.00;94.30;;;;;;5062761;28;19947;-66
2022/03/05 03:43:04;;;;;;;;;;;-1.10;94.20;;;;;;5062832;28;19908;-66
2022/03/05 03:45:30;;;;;;;;;;;-1.00;94.10;;;;;;5062808;28;19943;-67
2022/03/05 03:47:55;;;;;;;;;;;-1.00;93.90;;;;;;5062701;28;20387;-65
2022/03/05 03:50:22;;;;;;;;;;;-1.10;94.10;;;;;;5062857;28;19908;-66
2022/03/05 03:52:48;;;;;;;;;;;-1.10;94.10;;;;;;5061881;28;19920;-65
2022/03/05 03:55:16;;;;;;;;;;;-1.00;94.10;;;;;;5045017;28;20204;-66
2022/03/05 03:57:42;;;;;;;;;;;-1.00;94.00;;;;;;5044855;28;19955;-68
2022/03/05 04:00:09;;;;;;;;;;;-1.00;94.10;;;;;;5061278;28;19916;-67
2022/03/05 04:02:35;;;;;;;;;;;-1.10;94.10;;;;;;5062550;28;20163;-67
2022/03/05 04:05:01;;;;;;;;;;;-1.20;94.50;;;;;;5062535;28;19909;-67
2022/03/05 04:10:10;;;;;;;;;;;-1.30;95.10;;;;;;5062490;28;19931;-67
2022/03/05 04:12:36;;;;;;;;;;;-1.30;94.90;;;;;;5062101;28;19916;-66
2022/03/05 04:15:05;;;;;;;;;;;-1.20;94.80;;;;;;5062122;28;19917;-65
2022/03/05 04:17:31;;;;;;;;;;;-1.20;94.90;;;;;;5044609;28;19962;-66
2022/03/05 04:19:57;;;;;;;;;;;-1.10;94.80;;;;;;5062313;28;19972;-65
2022/03/05 04:22:22;;;;;;;;;;;-1.00;94.70;;;;;;5062117;28;19909;-67
2022/03/05 04:24:48;;;;;;;;;;;-1.00;94.70;;;;;;5044567;28;19977;-65
2022/03/05 04:27:14;;;;;;;;;;;-0.90;94.70;;;;;;5043094;28;19909;-66
2022/03/05 04:29:39;;;;;;;;;;;-1.00;94.60;;;;;;5062192;28;20210;-66
2022/03/05 04:32:06;;;;;;;;;;;-0.90;94.50;;;;;;5061948;28;19951;-65
2022/03/05 04:34:31;;;;;;;;;;;-1.00;94.70;;;;;;5062244;28;19916;-66
2022/03/05 04:36:57;;;;;;;;;;;-0.90;94.80;;;;;;5062114;28;19912;-66
2022/03/05 04:39:23;;;;;;;;;;;-0.90;94.60;;;;;;5062122;28;20009;-66
2022/03/05 04:41:48;;;;;;;;;;;-0.90;94.50;;;;;;5044441;28;19916;-65
2022/03/05 04:44:15;;;;;;;;;;;-0.90;94.60;;;;;;5042162;28;19909;-66
2022/03/05 04:46:40;;;;;;;;;;;-0.90;94.70;;;;;;5041284;28;20108;-66
2022/03/05 04:49:06;;;;;;;;;;;-0.90;94.70;;;;;;5041026;28;19916;-66
2022/03/05 04:51:32;;;;;;;;;;;-0.80;94.60;;;;;;5041715;28;19913;-66
2022/03/05 04:53:57;;;;;;;;;;;-0.80;94.50;;;;;;5042072;28;19967;-66
2022/03/05 04:56:23;;;;;;;;;;;-0.70;94.50;;;;;;5032897;28;20027;-66
2022/03/05 04:58:49;;;;;;;;;;;-0.70;94.30;;;;;;5044729;28;19939;-66
2022/03/05 05:01:15;;;;;;;;;;;-0.70;94.30;;;;;;5044028;28;19975;-66
2022/03/05 05:03:40;;;;;;;;;;;-0.60;94.10;;;;;;5061993;28;19970;-65
2022/03/05 05:06:06;;;;;;;;;;;-0.60;94.00;;;;;;5064639;28;20107;-66
2022/03/05 05:08:32;;;;;;;;;;;-0.70;94.00;;;;;;5065808;28;19908;-66
2022/03/05 05:10:58;;;;;;;;;;;-0.60;94.00;;;;;;5065365;28;19939;-66
2022/03/05 05:13:23;;;;;;;;;;;-0.70;94.10;;;;;;5065836;28;20089;-66
2022/03/05 05:15:49;;;;;;;;;;;-0.60;94.10;;;;;;5065500;28;19920;-65
2022/03/05 05:18:15;;;;;;;;;;;-0.70;94.00;;;;;;5065714;28;20192;-66
2022/03/05 05:20:40;;;;;;;;;;;-0.70;94.20;;;;;;5065434;28;19954;-67
2022/03/05 05:23:06;;;;;;;;;;;-0.70;94.10;;;;;;5065744;28;20103;-68
2022/03/05 05:25:32;;;;;;;;;;;-0.60;94.00;;;;;;5065606;28;19909;-66
2022/03/05 05:27:57;;;;;;;;;;;-0.70;94.00;;;;;;5064167;28;19924;-66
2022/03/05 05:30:23;;;;;;;;;;;-0.70;94.00;;;;;;5065446;28;20209;-66
2022/03/05 05:32:49;;;;;;;;;;;-0.70;94.10;;;;;;5065400;28;19913;-66
2022/03/05 05:35:15;;;;;;;;;;;-0.70;94.20;;;;;;5066858;28;20195;-66
2022/03/05 05:37:41;;;;;;;;;;;-0.70;94.20;;;;;;5067539;28;19912;-66
2022/03/05 05:40:07;;;;;;;;;;;-0.80;94.20;;;;;;5067307;28;19916;-66
2022/03/05 05:42:33;;;;;;;;;;;-0.80;94.50;;;;;;5051918;28;19921;-65
2022/03/05 05:44:58;;;;;;;;;;;-0.80;94.30;;;;;;5045994;28;19909;-65
2022/03/05 05:47:24;;;;;;;;;;;-0.80;94.30;;;;;;5045279;28;20219;-65
2022/03/05 05:49:50;;;;;;;;;;;-0.70;94.20;;;;;;5045306;28;19909;-65
2022/03/05 05:52:16;;;;;;;;;;;-0.80;94.20;;;;;;5044586;28;19921;-65
2022/03/05 05:54:41;;;;;;;;;;;-0.80;94.30;;;;;;5044960;28;19909;-67
2022/03/05 05:57:07;;;;;;;;;;;-0.80;94.30;;;;;;5048360;28;19951;-67
2022/03/05 05:59:33;;;;;;;;;;;-0.80;94.40;;;;;;5055408;28;19916;-67
2022/03/05 06:01:59;;;;;;;;;;;-0.90;94.50;;;;;;5066789;28;19971;-67
2022/03/05 06:04:24;;;;;;;;;;;-0.80;94.50;;;;;;5065190;28;20351;-67
2022/03/05 06:06:50;;;;;;;;;;;-0.80;94.40;;;;;;5047109;28;19909;-67
2022/03/05 06:09:16;;;;;;;;;;;-0.80;94.30;;;;;;5045371;28;19913;-67
2022/03/05 06:11:42;;;;;;;;;;;-0.80;94.30;;;;;;5044583;28;20108;-67
2022/03/05 06:14:07;;;;;;;;;;;-0.80;94.20;;;;;;5050166;28;19913;-67
2022/03/05 06:16:33;;;;;;;;;;;-0.70;94.20;;;;;;5027143;28;19920;-67
2022/03/05 06:18:59;;;;;;;;;;;-0.60;94.20;;;;;;5043921;28;19916;-66
2022/03/05 06:21:25;;;;;;;;;;;-0.70;94.10;;;;;;5048811;28;19920;-66
2022/03/05 06:23:50;;;;;;;;;;;-0.60;94.20;;;;;;5044315;28;19980;-67
2022/03/05 06:26:16;;;;;;;;;;;-0.50;94.10;;;;;;5044200;28;19920;-67
2022/03/05 06:28:42;;;;;;;;;;;-0.50;93.90;;;;;;5059738;28;20252;-67
2022/03/05 06:31:08;;;;;;;;;;;-0.50;94.00;;;;;;5049963;28;19917;-67
2022/03/05 06:33:33;;;;;;;;;;;-0.50;93.90;;;;;;5043644;28;19936;-66
2022/03/05 06:35:59;;;;;;;;;;;-0.40;94.00;;;;;;5044711;28;19909;-66
2022/03/05 06:38:25;;;;;;;;;;;-0.40;93.80;;;;;;5044077;28;19920;-66
2022/03/05 06:40:51;;;;;;;;;;;-0.40;93.70;;;;;;5044247;28;19909;-66
2022/03/05 06:43:18;;;;;;;;;;;-0.30;93.70;;;;;;5044350;28;20108;-66
2022/03/05 06:45:44;;;;;;;;;;;-0.20;93.60;;;;;;5044531;28;19916;-67
2022/03/05 06:48:10;;;;;;;;;;;-0.20;93.80;;;;;;5044461;28;20203;-67
2022/03/05 06:50:35;;;;;;;;;;;-0.10;93.40;;;;;;5044063;28;19936;-67
2022/03/05 06:53:01;;;;;;;;;;;-0.10;93.30;;;;;;5039615;28;19920;-67
2022/03/05 06:55:27;;;;;;;;;;;0.00;93.10;;;;;;5043238;28;19928;-66
2022/03/05 06:57:53;;;;;;;;;;;0.00;93.00;;;;;;5046879;28;19913;-66
2022/03/05 07:00:18;;;;;;;;;;;0.10;92.90;;;;;;5046722;28;19951;-71
2022/03/05 07:02:44;;;;;;;;;;;0.10;92.90;;;;;;5043763;28;19936;-66
2022/03/05 07:05:10;;;;;;;;;;;0.20;92.80;;;;;;5059659;28;19909;-66
2022/03/05 07:07:36;;;;;;;;;;;0.20;92.90;;;;;;5059545;28;19972;-72
2022/03/05 07:10:03;;;;;;;;;;;0.30;93.00;;;;;;5042923;28;19987;-70
2022/03/05 07:12:29;;;;;;;;;;;0.40;92.90;;;;;;5051078;28;19917;-76
2022/03/05 07:14:54;;;;;;;;;;;0.40;92.80;;;;;;5044117;28;19920;-73
2022/03/05 07:17:20;;;;;;;;;;;0.40;92.70;;;;;;5054857;28;20142;-73
2022/03/05 07:19:46;;;;;;;;;;;0.50;92.50;;;;;;5063797;28;19924;-73
2022/03/05 07:22:11;;;;;;;;;;;0.60;92.30;;;;;;5063203;28;19909;-72
2022/03/05 07:24:37;;;;;;;;;;;0.60;92.20;;;;;;5030443;28;19936;-72
2022/03/05 07:27:03;;;;;;;;;;;0.70;92.10;;;;;;5025826;28;20149;-72
2022/03/05 07:29:29;;;;;;;;;;;0.80;91.90;;;;;;5057623;28;19916;-74
2022/03/05 07:31:54;;;;;;;;;;;0.90;91.70;;;;;;5034119;28;19917;-71
2022/03/05 07:34:20;;;;;;;;;;;1.00;91.50;;;;;;5043363;28;19920;-73
2022/03/05 07:36:46;;;;;;;;;;;1.10;91.40;;;;;;5043419;28;19959;-73
2022/03/05 07:39:11;;;;;;;;;;;1.20;91.20;;;;;;5040437;28;19987;-71
2022/03/05 07:41:37;;;;;;;;;;;1.20;91.00;;;;;;5042974;28;20204;-73
2022/03/05 07:44:04;;;;;;;;;;;1.30;91.10;;;;;;5043007;28;19915;-71
2022/03/05 07:46:30;;;;;;;;;;;1.40;90.80;;;;;;5043794;28;19948;-71
2022/03/05 07:48:56;;;;;;;;;;;1.50;90.50;;;;;;5042109;28;19916;-71
2022/03/05 07:51:22;;;;;;;;;;;1.60;90.40;;;;;;5043940;28;19913;-72
2022/03/05 07:53:47;;;;;;;;;;;1.60;89.60;;;;;;5043558;28;19913;-71
2022/03/05 07:56:13;;;;;;;;;;;1.60;89.90;;;;;;5043913;28;19909;-76
2022/03/05 07:58:39;;;;;;;;;;;1.70;90.00;;;;;;5029298;28;19982;-71
2022/03/05 08:01:04;;;;;;;;;;;1.80;89.70;;;;;;5038763;28;19913;-71
2022/03/05 08:03:30;;;;;;;;;;;1.80;89.20;;;;;;5043141;28;19948;-73
2022/03/05 08:05:56;;;;;;;;;;;1.90;89.50;;;;;;5043030;28;19931;-74
2022/03/05 08:08:22;;;;;;;;;;;2.10;87.20;;;;;;5025426;28;19909;-72
2022/03/05 08:10:47;;;;;;;;;;;2.20;86.60;;;;;;5042614;28;19913;-72
2022/03/05 08:13:13;;;;;;;;;;;2.20;85.40;;;;;;5045208;28;19939;-73
2022/03/05 08:15:39;;;;;;;;;;;2.30;85.20;;;;;;5042872;28;19916;-73
2022/03/05 08:18:05;;;;;;;;;;;2.40;84.80;;;;;;5025104;28;19913;-73
2022/03/05 08:20:31;;;;;;;;;;;2.40;85.00;;;;;;5042598;28;19916;-73
2022/03/05 08:22:58;;;;;;;;;;;2.40;84.70;;;;;;5041655;28;19912;-73
2022/03/05 08:25:24;;;;;;;;;;;2.30;85.50;;;;;;5041672;28;19910;-73
2022/03/05 08:27:50;;;;;;;;;;;2.40;84.90;;;;;;5008875;28;19913;-73
2022/03/05 08:30:16;;;;;;;;;;;2.50;84.40;;;;;;5045658;28;19958;-73
2022/03/05 08:32:42;;;;;;;;;;;2.50;84.70;;;;;;5062533;28;19913;-73
2022/03/05 08:35:08;;;;;;;;;;;2.60;84.30;;;;;;5045035;28;19917;-73
2022/03/05 08:37:34;;;;;;;;;;;2.60;84.10;;;;;;5028395;28;19916;-74
2022/03/05 08:39:59;;;;;;;;;;;2.60;85.60;;;;;;5099726;22;19927;-68
2022/03/05 08:42:25;;;;;;;;;;;2.80;85.10;;;;;;5085697;28;19909;-68
2022/03/05 08:44:51;;;;;;;;;;;2.80;84.30;;;;;;5085715;28;20245;-68
2022/03/05 08:47:16;;;;;;;;;;;2.90;83.70;;;;;;5085801;28;19975;-70
2022/03/05 08:49:42;;;;;;;;;;;3.00;82.90;;;;;;5085717;28;19908;-68
2022/03/05 08:52:08;;;;;;;;;;;3.20;83.30;;;;;;5067179;28;20188;-67
2022/03/05 08:54:34;;;;;;;;;;;3.30;81.60;;;;;;5085348;28;19921;-69
2022/03/05 08:57:00;;;;;;;;;;;3.30;82.30;;;;;;5085681;28;19908;-69
2022/03/05 08:59:25;;;;;;;;;;;3.50;81.20;;;;;;5085953;28;19945;-69
2022/03/05 09:01:51;;;;;;;;;;;3.50;80.30;;;;;;5086071;28;20222;-67
2022/03/05 09:04:17;;;;;;;;;;;3.70;78.80;;;;;;5086310;28;19912;-68
2022/03/05 09:06:43;;;;;;;;;;;3.80;78.80;;;;;;5086267;28;19912;-68
2022/03/05 09:09:09;;;;;;;;;;;3.90;77.00;;;;;;5075309;28;19976;-68
2022/03/05 09:11:37;;;;;;;;;;;4.00;77.70;;;;;;5048353;28;19912;-68
2022/03/05 09:14:06;;;;;;;;;;;4.00;77.30;;;;;;5066194;28;20107;-68
2022/03/05 09:16:34;;;;;;;;;;;4.10;76.80;;;;;;5066156;28;19909;-68
2022/03/05 09:19:00;;;;;;;;;;;4.10;76.50;;;;;;5048522;28;19924;-68
2022/03/05 09:21:26;;;;;;;;;;;4.40;75.00;;;;;;5059396;28;20116;-68
2022/03/05 09:23:51;;;;;;;;;;;4.40;76.20;;;;;;5057928;28;19909;-68
2022/03/05 09:26:17;;;;;;;;;;;4.60;74.20;;;;;;5062714;28;19976;-68
2022/03/05 09:28:44;;;;;;;;;;;4.60;72.10;;;;;;5065442;28;19970;-67
2022/03/05 09:31:10;;;;;;;;;;;4.60;74.30;;;;;;5065071;28;19959;-67
2022/03/05 09:33:36;;;;;;;;;;;4.80;72.90;;;;;;5065410;28;19916;-67
2022/03/05 09:36:01;;;;;;;;;;;4.70;72.40;;;;;;5064224;28;20124;-68
2022/03/05 09:38:27;;;;;;;;;;;4.80;72.10;;;;;;5064756;28;20148;-67
2022/03/05 09:40:53;;;;;;;;;;;5.00;71.60;;;;;;5064895;28;19913;-67
2022/03/05 09:43:19;;;;;;;;;;;5.20;71.70;;;;;;5080600;28;19958;-69
2022/03/05 09:45:45;;;;;;;;;;;5.50;70.20;;;;;;5065493;28;19983;-68
2022/03/05 09:48:12;;;;;;;;;;;5.60;69.00;;;;;;5064912;28;19975;-69
2022/03/05 09:50:38;;;;;;;;;;;5.60;67.20;;;;;;5062510;28;19920;-70
2022/03/05 09:53:03;;;;;;;;;;;5.70;68.10;;;;;;5063449;28;19947;-67
2022/03/05 09:55:30;;;;;;;;;;;5.90;66.50;;;;;;5064788;28;19943;-67
2022/03/05 09:57:55;;;;;;;;;;;5.70;64.70;;;;;;5062412;28;20211;-67
2022/03/05 10:00:21;;;;;;;;;;;5.50;65.00;;;;;;5064799;28;19962;-67
2022/03/05 10:02:47;;;;;;;;;;;5.10;64.50;;;;;;5063622;28;19913;-68
2022/03/05 10:05:18;;;;;;;;;;;5.00;66.80;;;;;;5061558;28;20180;-67
2022/03/05 10:08:13;;;;;;;;;;;5.40;66.80;;;;;;5064887;28;20200;-68
2022/03/05 10:10:44;;;;;;;;;;;5.40;66.00;;;;;;5056809;28;19975;-67
2022/03/05 10:13:30;;;;;;;;;;;5.20;68.20;;;;;;5065124;28;19910;-68
2022/03/05 10:16:00;;;;;;;;;;;5.20;68.40;;;;;;5061373;28;20115;-68
2022/03/05 10:18:27;;;;;;;;;;;5.30;69.30;;;;;;5064636;28;19909;-68
2022/03/05 10:20:53;;;;;;;;;;;5.50;69.10;;;;;;5063244;28;19908;-68
2022/03/05 10:23:19;;;;;;;;;;;5.80;68.20;;;;;;5064495;28;19962;-67
2022/03/05 10:25:50;;;;;;;;;;;6.20;64.90;;;;;;5064793;28;19916;-67
2022/03/05 10:28:18;;;;;;;;;;;6.20;64.20;;;;;;5064145;28;19915;-68
2022/03/05 10:30:48;;;;;;;;;;;6.20;64.30;;;;;;5064257;28;19909;-68
2022/03/05 10:33:38;;;;;;;;;;;6.00;64.70;;;;;;5064392;28;19909;-68
2022/03/05 10:36:25;;;;;;;;;;;5.90;64.80;;;;;;5056812;28;19913;-68
2022/03/05 10:38:55;;;;;;;;;;;6.00;63.60;;;;;;5057687;28;19912;-68
2022/03/05 10:41:30;;;;;;;;;;;5.80;63.60;;;;;;5063720;28;19978;-67
2022/03/05 10:44:13;;;;;;;;;;;5.50;64.50;;;;;;5064334;28;20107;-68
2022/03/05 10:46:55;;;;;;;;;;;5.60;64.80;;;;;;5062970;28;20249;-68
2022/03/05 10:49:27;;;;;;;;;;;5.50;62.80;;;;;;5058187;28;19928;-69
2022/03/05 10:52:02;;;;;;;;;;;5.60;54.10;;;;;;5062485;28;20005;-66
2022/03/05 10:54:32;;;;;;;;;;;6.10;47.80;;;;;;5064210;28;20084;-67
2022/03/05 10:57:23;;;;;;;;;;;6.30;42.30;;;;;;5064309;28;19908;-67
2022/03/05 10:59:53;;;;;;;;;;;6.70;43.60;;;;;;5064479;28;19908;-68
2022/03/05 11:02:20;;;;;;;;;;;7.00;41.10;;;;;;5062012;28;19909;-68
2022/03/05 11:04:46;;;;;;;;;;;6.90;40.40;;;;;;5046301;28;19923;-67
2022/03/05 11:07:13;;;;;;;;;;;7.30;42.80;;;;;;5064038;28;20178;-68
2022/03/05 11:09:40;;;;;;;;;;;7.70;38.60;;;;;;5064197;28;19908;-69
2022/03/05 11:12:09;;;;;;;;;;;7.80;38.10;;;;;;5063615;28;19920;-67
2022/03/05 11:14:36;;;;;;;;;;;8.00;37.20;;;;;;5063847;28;19909;-69
2022/03/05 11:17:03;;;;;;;;;;;8.10;38.10;;;;;;5063165;28;20119;-66
2022/03/05 11:19:30;;;;;;;;;;;8.10;37.50;;;;;;5058404;28;19917;-68
2022/03/05 11:21:57;;;;;;;;;;;8.20;37.00;;;;;;5042034;28;19913;-67
2022/03/05 11:24:22;;;;;;;;;;;8.20;37.30;;;;;;5057464;28;19913;-67
2022/03/05 11:26:49;;;;;;;;;;;8.50;37.70;;;;;;5061994;28;19932;-67
2022/03/05 11:29:25;;;;;;;;;;;9.20;36.30;;;;;;5063574;28;19951;-66
2022/03/05 11:31:51;;;;;;;;;;;9.40;35.10;;;;;;5063715;28;19952;-72
2022/03/05 11:34:17;;;;;;;;;;;9.30;35.20;;;;;;5063688;28;19947;-73
2022/03/05 11:36:44;;;;;;;;;;;9.20;34.80;;;;;;5045955;28;20146;-73
2022/03/05 11:39:20;;;;;;;;;;;8.60;35.20;;;;;;5028922;28;19913;-73
2022/03/05 11:41:53;;;;;;;;;;;8.20;36.40;;;;;;5063073;28;19921;-73
2022/03/05 11:44:20;;;;;;;;;;;7.90;38.30;;;;;;5063691;28;19983;-72
2022/03/05 11:46:46;;;;;;;;;;;7.80;37.50;;;;;;5063449;28;19967;-73
2022/03/05 11:49:13;;;;;;;;;;;7.50;38.60;;;;;;5045933;28;19915;-73
2022/03/05 11:51:58;;;;;;;;;;;7.50;39.20;;;;;;5042870;28;19951;-74
2022/03/05 11:54:24;;;;;;;;;;;7.50;39.10;;;;;;5047033;28;20030;-74
2022/03/05 11:57:13;;;;;;;;;;;7.50;39.20;;;;;;5029434;28;19909;-73
2022/03/05 11:59:45;;;;;;;;;;;7.40;39.10;;;;;;5013411;28;19908;-73
2022/03/05 12:02:11;;;;;;;;;;;7.20;40.00;;;;;;5062089;28;19908;-74
2022/03/05 12:04:43;;;;;;;;;;;7.20;40.00;;;;;;5062315;28;20286;-72
2022/03/05 12:07:12;;;;;;;;;;;7.10;40.80;;;;;;5046262;28;19915;-75
2022/03/05 12:09:39;;;;;;;;;;;6.90;41.60;;;;;;5045099;28;19908;-75
2022/03/05 12:12:07;;;;;;;;;;;6.70;41.60;;;;;;5045064;28;19912;-73
2022/03/05 12:15:01;;;;;;;;;;;6.70;41.70;;;;;;5028411;28;20011;-74
2022/03/05 12:17:32;;;;;;;;;;;6.60;42.10;;;;;;5062671;28;20208;-73
2022/03/05 12:19:58;;;;;;;;;;;6.60;41.60;;;;;;5062642;28;19940;-74
2022/03/05 12:22:23;;;;;;;;;;;6.50;41.60;;;;;;5062131;28;19909;-77
2022/03/05 12:24:49;;;;;;;;;;;6.50;41.80;;;;;;5062703;28;20321;-70
2022/03/05 12:27:16;;;;;;;;;;;6.30;41.90;;;;;;5062755;28;19940;-70
2022/03/05 12:29:49;;;;;;;;;;;6.30;41.50;;;;;;5045451;28;19909;-70
2022/03/05 12:32:15;;;;;;;;;;;6.10;42.40;;;;;;5058429;28;19952;-70
2022/03/05 12:34:40;;;;;;;;;;;6.10;42.40;;;;;;5061156;28;19909;-70
2022/03/05 12:37:07;;;;;;;;;;;5.90;42.70;;;;;;5062673;28;19908;-70
2022/03/05 12:39:33;;;;;;;;;;;5.70;42.80;;;;;;5062543;28;19912;-70
2022/03/05 12:41:59;;;;;;;;;;;5.60;43.20;;;;;;5062487;28;19916;-69
2022/03/05 12:44:24;;;;;;;;;;;5.50;44.30;;;;;;5062582;28;19908;-70
2022/03/05 12:46:50;;;;;;;;;;;5.40;44.10;;;;;;5062278;28;19954;-70
2022/03/05 12:49:16;;;;;;;;;;;5.40;44.80;;;;;;5061443;28;20108;-67
2022/03/05 12:51:42;;;;;;;;;;;5.30;45.20;;;;;;5062114;28;19913;-70
2022/03/05 12:54:08;;;;;;;;;;;5.40;45.50;;;;;;5061476;28;19975;-70
2022/03/05 12:56:34;;;;;;;;;;;5.40;45.90;;;;;;5062347;28;19956;-72
2022/03/05 12:59:00;;;;;;;;;;;5.40;45.70;;;;;;5061519;28;19908;-75
2022/03/05 13:01:26;;;;;;;;;;;5.40;45.90;;;;;;5040621;28;20230;-71
2022/03/05 13:03:54;;;;;;;;;;;5.50;45.50;;;;;;5061684;28;19909;-72
2022/03/05 13:06:19;;;;;;;;;;;5.50;45.60;;;;;;5062039;28;19920;-70
2022/03/05 13:08:45;;;;;;;;;;;5.40;46.30;;;;;;5061819;28;20220;-71
2022/03/05 13:11:12;;;;;;;;;;;5.40;47.10;;;;;;5061848;28;19917;-68
2022/03/05 13:13:42;;;;;;;;;;;5.50;46.90;;;;;;5044713;28;19909;-70
2022/03/05 13:16:09;;;;;;;;;;;5.30;46.20;;;;;;5061987;28;19954;-71
2022/03/05 13:18:36;;;;;;;;;;;5.30;46.50;;;;;;5044670;28;20195;-70
2022/03/05 13:21:03;;;;;;;;;;;5.20;47.00;;;;;;5043858;28;19943;-70
2022/03/05 13:23:29;;;;;;;;;;;5.20;48.00;;;;;;5061878;28;19943;-71
2022/03/05 13:25:55;;;;;;;;;;;5.30;47.70;;;;;;5062731;28;19909;-70
2022/03/05 13:28:22;;;;;;;;;;;5.40;48.10;;;;;;5031184;28;19909;-70
2022/03/05 13:30:52;;;;;;;;;;;5.50;47.20;;;;;;5047534;28;19909;-68
2022/03/05 13:33:46;;;;;;;;;;;5.70;46.50;;;;;;5065344;28;20089;-69
2022/03/05 13:36:22;;;;;;;;;;;5.90;46.10;;;;;;5047097;28;19916;-70
2022/03/05 13:38:49;;;;;;;;;;;6.00;45.80;;;;;;5047971;28;19912;-72
2022/03/05 13:41:22;;;;;;;;;;;6.10;45.50;;;;;;5047254;28;20227;-71
2022/03/05 13:43:48;;;;;;;;;;;6.00;46.00;;;;;;5031362;28;20165;-70
2022/03/05 13:46:15;;;;;;;;;;;5.90;46.10;;;;;;5064698;28;19909;-71
2022/03/05 13:48:52;;;;;;;;;;;5.70;47.20;;;;;;5030984;28;19917;-69
2022/03/05 13:51:20;;;;;;;;;;;5.70;46.50;;;;;;5046869;28;19917;-68
2022/03/05 13:53:47;;;;;;;;;;;5.70;46.40;;;;;;5047106;28;20224;-71
2022/03/05 13:56:13;;;;;;;;;;;5.70;46.70;;;;;;5047454;28;20144;-69
2022/03/05 13:58:39;;;;;;;;;;;5.70;46.30;;;;;;5064785;28;19909;-73
2022/03/05 14:01:31;;;;;;;;;;;5.70;47.30;;;;;;5046543;28;20455;-73
2022/03/05 14:04:13;;;;;;;;;;;5.70;47.20;;;;;;5032843;28;19930;-69
2022/03/05 14:06:51;;;;;;;;;;;5.60;46.70;;;;;;5028094;28;19914;-71
2022/03/05 14:09:27;;;;;;;;;;;5.60;46.70;;;;;;5045062;28;19980;-71
2022/03/05 14:12:11;;;;;;;;;;;5.60;46.60;;;;;;5011703;28;19912;-71
2022/03/05 14:14:39;;;;;;;;;;;5.70;46.00;;;;;;5026989;28;19915;-68
2022/03/05 14:17:06;;;;;;;;;;;5.70;45.40;;;;;;5026819;28;19916;-68
2022/03/05 14:19:33;;;;;;;;;;;5.60;45.50;;;;;;5044184;28;19909;-70
2022/03/05 14:22:11;;;;;;;;;;;5.60;43.40;;;;;;5044959;28;19916;-69
2022/03/05 14:24:42;;;;;;;;;;;5.60;43.00;;;;;;5011212;28;19910;-71
2022/03/05 14:27:14;;;;;;;;;;;5.50;43.10;;;;;;5027579;28;19973;-73